Time;durP1;ratioP1;P1;durP2;ratioP2;P2;SDS_P1;SDS_P2;PMS_P1;PMS_P2;Temp;Humidity;BMP_temperature;BMP_pressure;BME280_temperature;BME280_humidity;BME280_pressure;Samples;Min_cycle;Max_cycle;Signal;HPM_P1;HPM_P2
2022/01/20 00:00:16;;;;;;;;;;;;;;;;;;5076846;28;1323;-84
2022/01/20 00:02:42;;;;;;;;;;;;;;;;;;5103070;28;1237;-85
2022/01/20 00:08:05;;;;;;;;;;;;;;;;;;5106617;28;1976;-87
2022/01/20 00:26:52;;;;;;;;;;;;;;;;;;5106731;28;1922;-85
2022/01/20 00:29:25;;;;;;;;;;;;;;;;;;5091428;28;1313;-85
2022/01/20 00:32:11;;;;;;;;;;;;;;;;;;5090834;28;1158;-83
2022/01/20 00:35:06;;;;;;;;;;;;;;;;;;5093408;28;1309;-87
2022/01/20 00:37:24;;;;;;;;;;;;;;;;;;5109665;28;1192;-85
2022/01/20 00:39:53;;;;;;;;;;;;;;;;;;5098692;28;1213;-85
2022/01/20 00:42:18;;;;;;;;;;;;;;;;;;5081996;27;1202;-87
2022/01/20 00:44:43;;;;;;;;;;;;;;;;;;5107473;27;1253;-86
2022/01/20 00:47:09;;;;;;;;;;;;;;;;;;5106530;27;1906;-86
2022/01/20 00:49:35;;;;;;;;;;;;;;;;;;5104353;27;1385;-85
2022/01/20 00:52:00;;;;;;;;;;;;;;;;;;5100020;27;1489;-86
2022/01/20 00:54:25;;;;;;;;;;;;;;;;;;5111256;28;1155;-86
2022/01/20 00:56:51;;;;;;;;;;;;;;;;;;5088860;27;1261;-85
2022/01/20 00:59:19;;;;;;;;;;;;;;;;;;5089562;27;1200;-85
2022/01/20 01:01:45;;;;;;;;;;;;;;;;;;5130798;27;1203;-85
2022/01/20 01:04:10;;;;;;;;;;;;;;;;;;5114552;27;1199;-85
2022/01/20 01:09:06;;;;;;;;;;;;;;;;;;5118618;27;1182;-87
2022/01/20 01:11:31;;;;;;;;;;;;;;;;;;5097026;28;1211;-87
2022/01/20 01:13:58;;;;;;;;;;;;;;;;;;5141754;27;1303;-85
2022/01/20 01:16:38;;;;;;;;;;;;;;;;;;5104393;28;1128;-85
2022/01/20 01:22:02;;;;;;;;;;;;;;;;;;5121317;27;1038;-86
2022/01/20 01:24:27;;;;;;;;;;;;;;;;;;5083695;27;1357;-85
2022/01/20 01:26:53;;;;;;;;;;;;;;;;;;5129769;27;1953;-86
2022/01/20 01:31:58;;;;;;;;;;;;;;;;;;5109020;28;1266;-84
2022/01/20 01:34:28;;;;;;;;;;;;;;;;;;5108280;27;1224;-85
2022/01/20 01:39:25;;;;;;;;;;;;;;;;;;5104421;28;1203;-87
2022/01/20 01:41:57;;;;;;;;;;;;;;;;;;5120312;27;1384;-87
2022/01/20 01:44:29;;;;;;;;;;;;;;;;;;5089724;27;1207;-87
2022/01/20 01:46:55;;;;;;;;;;;;;;;;;;5103934;28;1927;-86
2022/01/20 01:49:21;;;;;;;;;;;;;;;;;;5095087;28;1176;-88
2022/01/20 01:51:46;;;;;;;;;;;;;;;;;;5103826;27;1360;-86
2022/01/20 01:54:12;;;;;;;;;;;;;;;;;;5093030;27;1163;-86
2022/01/20 01:56:43;;;;;;;;;;;;;;;;;;5112517;27;1316;-85
2022/01/20 01:59:09;;;;;;;;;;;;;;;;;;5096806;28;1223;-86
2022/01/20 02:01:37;;;;;;;;;;;;;;;;;;5106594;27;1256;-85
2022/01/20 02:04:18;;;;;;;;;;;;;;;;;;5089382;28;1219;-85
2022/01/20 02:20:33;;;;;;;;;;;;;;;;;;5075390;27;1187;-87
2022/01/20 02:22:58;;;;;;;;;;;;;;;;;;5099454;28;1301;-86
2022/01/20 02:25:25;;;;;;;;;;;;;;;;;;5105417;27;1175;-87
2022/01/20 02:27:51;;;;;;;;;;;;;;;;;;5112288;27;1885;-84
2022/01/20 02:30:18;;;;;;;;;;;;;;;;;;5110302;28;1163;-86
2022/01/20 02:32:51;;;;;;;;;;;;;;;;;;5110313;27;1320;-84
2022/01/20 02:35:16;;;;;;;;;;;;;;;;;;5113669;27;1316;-84
2022/01/20 02:37:43;;;;;;;;;;;;;;;;;;5115143;27;1108;-85
2022/01/20 02:45:44;;;;;;;;;;;;;;;;;;5111131;27;992;-83
2022/01/20 02:48:09;;;;;;;;;;;;;;;;;;5101692;27;1902;-83
2022/01/20 02:50:34;;;;;;;;;;;;;;;;;;5126212;27;1301;-85
2022/01/20 02:52:59;;;;;;;;;;;;;;;;;;5078410;27;1238;-86
2022/01/20 02:55:25;;;;;;;;;;;;;;;;;;5090320;27;1230;-85
2022/01/20 02:57:53;;;;;;;;;;;;;;;;;;5099474;27;1215;-85
2022/01/20 03:00:19;;;;;;;;;;;;;;;;;;5089010;27;1278;-84
2022/01/20 03:02:46;;;;;;;;;;;;;;;;;;5092207;27;1214;-86
2022/01/20 03:05:11;;;;;;;;;;;;;;;;;;5109354;27;1319;-85
2022/01/20 03:07:36;;;;;;;;;;;;;;;;;;5079243;28;1906;-85
2022/01/20 03:10:03;;;;;;;;;;;;;;;;;;5087409;27;1307;-87
2022/01/20 03:12:28;;;;;;;;;;;;;;;;;;5106405;27;1139;-86
2022/01/20 03:14:54;;;;;;;;;;;;;;;;;;5078162;27;1116;-86
2022/01/20 03:17:19;;;;;;;;;;;;;;;;;;5094158;27;1208;-85
2022/01/20 03:19:47;;;;;;;;;;;;;;;;;;5102058;27;1180;-85
2022/01/20 03:22:12;;;;;;;;;;;;;;;;;;5098401;27;1320;-83
2022/01/20 03:24:37;;;;;;;;;;;;;;;;;;5128038;27;1397;-83
2022/01/20 03:27:03;;;;;;;;;;;;;;;;;;5136828;27;1923;-83
2022/01/20 03:29:28;;;;;;;;;;;;;;;;;;5108965;28;1158;-82
2022/01/20 03:31:53;;;;;;;;;;;;;;;;;;5118603;27;1237;-85
2022/01/20 03:34:21;;;;;;;;;;;;;;;;;;5085678;27;1172;-86
2022/01/20 03:36:48;;;;;;;;;;;;;;;;;;5086449;27;1243;-85
2022/01/20 03:39:13;;;;;;;;;;;;;;;;;;5100314;28;1203;-85
2022/01/20 03:41:39;;;;;;;;;;;;;;;;;;5106248;28;1285;-86
2022/01/20 03:44:04;;;;;;;;;;;;;;;;;;5085666;28;1370;-85
2022/01/20 03:46:30;;;;;;;;;;;;;;;;;;5100641;28;1957;-86
2022/01/20 03:49:06;;;;;;;;;;;;;;;;;;5076088;28;1438;-84
2022/01/20 03:51:31;;;;;;;;;;;;;;;;;;5110945;28;1215;-87
2022/01/20 03:53:57;;;;;;;;;;;;;;;;;;5112864;28;1171;-84
2022/01/20 03:56:22;;;;;;;;;;;;;;;;;;5110607;28;1321;-87
2022/01/20 03:58:54;;;;;;;;;;;;;;;;;;5099004;28;1168;-86
2022/01/20 04:01:19;;;;;;;;;;;;;;;;;;5117728;28;1171;-85
2022/01/20 04:03:45;;;;;;;;;;;;;;;;;;5119394;28;1135;-85
2022/01/20 04:06:11;;;;;;;;;;;;;;;;;;5092282;28;1902;-86
2022/01/20 04:08:38;;;;;;;;;;;;;;;;;;5083599;28;1195;-86
2022/01/20 04:11:07;;;;;;;;;;;;;;;;;;5094355;28;1218;-86
2022/01/20 04:13:33;;;;;;;;;;;;;;;;;;5123524;28;1282;-86
2022/01/20 04:16:00;;;;;;;;;;;;;;;;;;5098822;28;1330;-86
2022/01/20 04:18:27;;;;;;;;;;;;;;;;;;5124821;27;1184;-86
2022/01/20 04:20:59;;;;;;;;;;;;;;;;;;5102689;28;1178;-86
2022/01/20 04:23:25;;;;;;;;;;;;;;;;;;5105413;27;1415;-87
2022/01/20 04:25:54;;;;;;;;;;;;;;;;;;5096588;27;1241;-84
2022/01/20 04:28:19;;;;;;;;;;;;;;;;;;5106722;27;1951;-84
2022/01/20 04:30:44;;;;;;;;;;;;;;;;;;5101741;28;1266;-85
2022/01/20 04:33:10;;;;;;;;;;;;;;;;;;5092878;27;1332;-86
2022/01/20 04:35:35;;;;;;;;;;;;;;;;;;5095064;28;1278;-85
2022/01/20 04:38:00;;;;;;;;;;;;;;;;;;5092433;28;1395;-86
2022/01/20 04:40:26;;;;;;;;;;;;;;;;;;5104876;27;1167;-85
2022/01/20 04:42:57;;;;;;;;;;;;;;;;;;5116482;27;1227;-86
2022/01/20 04:45:30;;;;;;;;;;;;;;;;;;5090199;27;1362;-86
2022/01/20 04:48:13;;;;;;;;;;;;;;;;;;5083281;28;1906;-85
2022/01/20 04:58:57;;;;;;;;;;;;;;;;;;5122343;27;1017;-87
2022/01/20 05:01:23;;;;;;;;;;;;;;;;;;5081198;27;1236;-86
2022/01/20 05:03:48;;;;;;;;;;;;;;;;;;5090553;27;1278;-86
2022/01/20 05:06:14;;;;;;;;;;;;;;;;;;5120941;27;1890;-86
2022/01/20 05:08:39;;;;;;;;;;;;;;;;;;5103848;28;1183;-85
2022/01/20 05:11:05;;;;;;;;;;;;;;;;;;5072644;28;1338;-87
2022/01/20 05:13:35;;;;;;;;;;;;;;;;;;5094724;28;1242;-84
2022/01/20 05:16:03;;;;;;;;;;;;;;;;;;5093325;27;1241;-84
2022/01/20 05:18:28;;;;;;;;;;;;;;;;;;5100112;27;1184;-85
2022/01/20 05:21:11;;;;;;;;;;;;;;;;;;5100612;27;1285;-85
2022/01/20 05:23:37;;;;;;;;;;;;;;;;;;5111174;27;1148;-84
2022/01/20 05:26:02;;;;;;;;;;;;;;;;;;5105079;28;1941;-85
2022/01/20 05:28:28;;;;;;;;;;;;;;;;;;5091662;27;1141;-84
2022/01/20 05:30:53;;;;;;;;;;;;;;;;;;5120056;27;1306;-86
2022/01/20 05:33:18;;;;;;;;;;;;;;;;;;5093487;27;1341;-87
2022/01/20 05:36:10;;;;;;;;;;;;;;;;;;5086395;27;1204;-86
2022/01/20 05:38:35;;;;;;;;;;;;;;;;;;5101034;28;1326;-85
2022/01/20 05:41:03;;;;;;;;;;;;;;;;;;5107025;28;1211;-84
2022/01/20 05:43:29;;;;;;;;;;;;;;;;;;5099306;28;1282;-85
2022/01/20 05:45:54;;;;;;;;;;;;;;;;;;5099201;27;1222;-83
2022/01/20 05:48:31;;;;;;;;;;;;;;;;;;5116245;27;1930;-83
2022/01/20 05:51:38;;;;;;;;;;;;;;;;;;5092079;27;1167;-86
2022/01/20 05:54:07;;;;;;;;;;;;;;;;;;5035678;28;1465;-84
2022/01/20 05:56:32;;;;;;;;;;;;;;;;;;5052366;28;1300;-84
2022/01/20 05:59:10;;;;;;;;;;;;;;;;;;5088077;27;1216;-83
2022/01/20 06:01:37;;;;;;;;;;;;;;;;;;5096457;27;1184;-83
2022/01/20 06:04:02;;;;;;;;;;;;;;;;;;5120565;27;1203;-85
2022/01/20 06:06:30;;;;;;;;;;;;;;;;;;5127461;27;1914;-85
2022/01/20 06:08:56;;;;;;;;;;;;;;;;;;5135763;27;1167;-83
2022/01/20 06:11:24;;;;;;;;;;;;;;;;;;5110966;27;1518;-88
2022/01/20 06:13:50;;;;;;;;;;;;;;;;;;5123308;27;1116;-85
2022/01/20 06:16:15;;;;;;;;;;;;;;;;;;5095277;28;1238;-85
2022/01/20 06:18:41;;;;;;;;;;;;;;;;;;5099634;27;1157;-85
2022/01/20 06:21:16;;;;;;;;;;;;;;;;;;5127752;27;1167;-86
2022/01/20 06:23:41;;;;;;;;;;;;;;;;;;5107166;28;1304;-84
2022/01/20 06:26:06;;;;;;;;;;;;;;;;;;5089399;28;1955;-85
2022/01/20 06:28:36;;;;;;;;;;;;;;;;;;5106400;27;1333;-84
2022/01/20 06:31:09;;;;;;;;;;;;;;;;;;5106840;27;1305;-83
2022/01/20 06:33:35;;;;;;;;;;;;;;;;;;5128839;27;1206;-79
2022/01/20 06:38:47;;;;;;;;;;;;;;;;;;5130167;27;1057;-83
2022/01/20 06:41:13;;;;;;;;;;;;;;;;;;5105886;27;1179;-84
2022/01/20 06:43:38;;;;;;;;;;;;;;;;;;5091848;27;1254;-84
2022/01/20 06:46:06;;;;;;;;;;;;;;;;;;5083571;28;1930;-86
2022/01/20 06:48:31;;;;;;;;;;;;;;;;;;5091206;27;1282;-82
2022/01/20 06:50:57;;;;;;;;;;;;;;;;;;5085480;27;1269;-83
2022/01/20 06:53:22;;;;;;;;;;;;;;;;;;5085048;28;1347;-85
2022/01/20 06:55:47;;;;;;;;;;;;;;;;;;5076896;27;1316;-85
2022/01/20 06:58:12;;;;;;;;;;;;;;;;;;5090354;27;1310;-86
2022/01/20 07:00:38;;;;;;;;;;;;;;;;;;5097053;27;1132;-85
2022/01/20 07:03:06;;;;;;;;;;;;;;;;;;5075881;27;1356;-83
2022/01/20 07:05:31;;;;;;;;;;;;;;;;;;5109328;27;1476;-84
2022/01/20 07:07:56;;;;;;;;;;;;;;;;;;5096426;27;1991;-83
2022/01/20 07:10:22;;;;;;;;;;;;;;;;;;5083263;28;1180;-84
2022/01/20 07:12:48;;;;;;;;;;;;;;;;;;5116896;27;1187;-84
2022/01/20 07:15:14;;;;;;;;;;;;;;;;;;5093801;28;1129;-84
2022/01/20 07:17:39;;;;;;;;;;;;;;;;;;5106598;27;1192;-87
2022/01/20 07:20:06;;;;;;;;;;;;;;;;;;5087790;27;1208;-84
2022/01/20 07:22:31;;;;;;;;;;;;;;;;;;5084009;28;1223;-85
2022/01/20 07:24:57;;;;;;;;;;;;;;;;;;5125414;27;1207;-84
2022/01/20 07:27:22;;;;;;;;;;;;;;;;;;5090096;28;1937;-84
2022/01/20 07:29:47;;;;;;;;;;;;;;;;;;5076563;27;1444;-84
2022/01/20 07:32:13;;;;;;;;;;;;;;;;;;5089091;28;1218;-84
2022/01/20 07:34:38;;;;;;;;;;;;;;;;;;5115033;27;1189;-85
2022/01/20 07:37:05;;;;;;;;;;;;;;;;;;5098121;28;1198;-83
2022/01/20 07:39:31;;;;;;;;;;;;;;;;;;5091997;28;1372;-83
2022/01/20 07:41:56;;;;;;;;;;;;;;;;;;5097304;28;1159;-84
2022/01/20 07:44:21;;;;;;;;;;;;;;;;;;5080850;27;1410;-85
2022/01/20 07:46:47;;;;;;;;;;;;;;;;;;5085641;28;1997;-83
2022/01/20 07:49:15;;;;;;;;;;;;;;;;;;5094561;28;1571;-85
2022/01/20 07:51:40;;;;;;;;;;;;;;;;;;5096833;28;1373;-84
2022/01/20 07:54:14;;;;;;;;;;;;;;;;;;5096553;28;1312;-83
2022/01/20 07:56:40;;;;;;;;;;;;;;;;;;5098784;28;1119;-85
2022/01/20 07:59:15;;;;;;;;;;;;;;;;;;5087258;28;1165;-78
2022/01/20 08:01:40;;;;;;;;;;;;;;;;;;5121136;28;1337;-78
2022/01/20 08:04:13;;;;;;;;;;;;;;;;;;5103273;28;1471;-79
2022/01/20 08:06:38;;;;;;;;;;;;;;;;;;5081827;28;2006;-77
2022/01/20 08:09:03;;;;;;;;;;;;;;;;;;5102725;28;1166;-78
2022/01/20 08:11:29;;;;;;;;;;;;;;;;;;5109874;28;1116;-79
2022/01/20 08:13:55;;;;;;;;;;;;;;;;;;5082124;28;1279;-79
2022/01/20 08:16:21;;;;;;;;;;;;;;;;;;5078674;28;1010;-80
2022/01/20 08:18:46;;;;;;;;;;;;;;;;;;5066293;28;1225;-78
2022/01/20 08:21:14;;;;;;;;;;;;;;;;;;5078179;28;1105;-79
2022/01/20 08:23:39;;;;;;;;;;;;;;;;;;5100559;28;1206;-79
2022/01/20 08:26:05;;;;;;;;;;;;;;;;;;5079415;28;1198;-77
2022/01/20 08:28:30;;;;;;;;;;;;;;;;;;5079376;28;1949;-78
2022/01/20 08:30:55;;;;;;;;;;;;;;;;;;5097657;28;1163;-79
2022/01/20 08:33:21;;;;;;;;;;;;;;;;;;5076873;28;1295;-78
2022/01/20 08:35:57;;;;;;;;;;;;;;;;;;5071212;28;1247;-87
2022/01/20 08:38:23;;;;;;;;;;;;;;;;;;5078464;28;1191;-76
2022/01/20 08:40:52;;;;;;;;;;;;;;;;;;5083542;28;1172;-76
2022/01/20 08:43:17;;;;;;;;;;;;;;;;;;5082473;28;1131;-74
2022/01/20 08:45:47;;;;;;;;;;;;;;;;;;5082677;28;1136;-75
2022/01/20 08:48:18;;;;;;;;;;;;;;;;;;5082203;28;1961;-76
2022/01/20 08:50:44;;;;;;;;;;;;;;;;;;5082041;28;1179;-74
2022/01/20 08:53:15;;;;;;;;;;;;;;;;;;5080780;28;1200;-75
2022/01/20 08:55:41;;;;;;;;;;;;;;;;;;5094577;28;1294;-75
2022/01/20 08:58:06;;;;;;;;;;;;;;;;;;5102849;28;1083;-76
2022/01/20 09:00:32;;;;;;;;;;;;;;;;;;5102520;28;1317;-77
2022/01/20 09:02:57;;;;;;;;;;;;;;;;;;5096443;28;1069;-75
2022/01/20 09:05:23;;;;;;;;;;;;;;;;;;5086125;28;1072;-76
2022/01/20 09:07:48;;;;;;;;;;;;;;;;;;5083465;28;1984;-76
2022/01/20 09:10:20;;;;;;;;;;;;;;;;;;5084314;28;1227;-76
2022/01/20 09:15:36;;;;;;;;;;;;;;;;;;5107861;28;1210;-76
2022/01/20 09:18:04;;;;;;;;;;;;;;;;;;5107412;28;1052;-75
2022/01/20 09:20:29;;;;;;;;;;;;;;;;;;5104197;28;1222;-77
2022/01/20 09:22:55;;;;;;;;;;;;;;;;;;5086605;28;1152;-76
2022/01/20 09:25:21;;;;;;;;;;;;;;;;;;5098377;28;1116;-74
2022/01/20 09:27:46;;;;;;;;;;;;;;;;;;5086795;28;1881;-76
2022/01/20 09:30:18;;;;;;;;;;;;;;;;;;5085490;28;1191;-77
2022/01/20 09:32:43;;;;;;;;;;;;;;;;;;5083855;28;1252;-77
2022/01/20 09:35:08;;;;;;;;;;;;;;;;;;5105384;27;1412;-77
2022/01/20 09:37:36;;;;;;;;;;;;;;;;;;5104150;27;1491;-76
2022/01/20 09:40:01;;;;;;;;;;;;;;;;;;5102750;28;1274;-75
2022/01/20 09:42:26;;;;;;;;;;;;;;;;;;5071440;28;1384;-77
2022/01/20 09:44:54;;;;;;;;;;;;;;;;;;5090588;28;1282;-78
2022/01/20 09:47:19;;;;;;;;;;;;;;;;;;5089357;28;1930;-76
2022/01/20 09:49:45;;;;;;;;;;;;;;;;;;5089700;28;1163;-78
2022/01/20 09:52:10;;;;;;;;;;;;;;;;;;5086102;28;1752;-76
2022/01/20 09:54:36;;;;;;;;;;;;;;;;;;5072180;28;1182;-77
2022/01/20 09:57:02;;;;;;;;;;;;;;;;;;5108559;28;1211;-75
2022/01/20 09:59:28;;;;;;;;;;;;;;;;;;5089005;28;1175;-75
2022/01/20 10:01:56;;;;;;;;;;;;;;;;;;5086550;27;1453;-76
2022/01/20 10:04:21;;;;;;;;;;;;;;;;;;5110070;27;1357;-77
2022/01/20 10:06:59;;;;;;;;;;;;;;;;;;5106556;27;1970;-78
2022/01/20 10:09:28;;;;;;;;;;;;;;;;;;5126570;27;1198;-77
2022/01/20 10:11:54;;;;;;;;;;;;;;;;;;5107465;27;1293;-76
2022/01/20 10:14:25;;;;;;;;;;;;;;;;;;5126374;27;1230;-77
2022/01/20 10:16:54;;;;;;;;;;;;;;;;;;5127111;27;1140;-77
2022/01/20 10:19:27;;;;;;;;;;;;;;;;;;5108337;27;1233;-76
2022/01/20 10:21:52;;;;;;;;;;;;;;;;;;5104718;27;1179;-75
2022/01/20 10:24:25;;;;;;;;;;;;;;;;;;5091716;27;1395;-75
2022/01/20 10:26:51;;;;;;;;;;;;;;;;;;5107671;27;2353;-75
2022/01/20 10:29:16;;;;;;;;;;;;;;;;;;5110267;27;1460;-76
2022/01/20 10:31:52;;;;;;;;;;;;;;;;;;5100999;27;1203;-76
2022/01/20 10:34:35;;;;;;;;;;;;;;;;;;5086491;28;1211;-75
2022/01/20 10:37:16;;;;;;;;;;;;;;;;;;5099755;28;1320;-75
2022/01/20 10:39:44;;;;;;;;;;;;;;;;;;5103628;28;1356;-76
2022/01/20 10:42:10;;;;;;;;;;;;;;;;;;5105834;28;1195;-76
2022/01/20 10:44:40;;;;;;;;;;;;;;;;;;5092918;28;1297;-75
2022/01/20 10:47:05;;;;;;;;;;;;;;;;;;5084782;28;1961;-77
2022/01/20 10:49:32;;;;;;;;;;;;;;;;;;5084954;28;1140;-77
2022/01/20 10:52:02;;;;;;;;;;;;;;;;;;5084162;28;1092;-77
2022/01/20 10:54:34;;;;;;;;;;;;;;;;;;5083547;28;1210;-77
2022/01/20 10:56:59;;;;;;;;;;;;;;;;;;5083715;28;1239;-77
2022/01/20 10:59:27;;;;;;;;;;;;;;;;;;5084989;28;1217;-77
2022/01/20 11:02:01;;;;;;;;;;;;;;;;;;5085463;28;1162;-76
2022/01/20 11:04:27;;;;;;;;;;;;;;;;;;5082249;28;1284;-76
2022/01/20 11:06:55;;;;;;;;;;;;;;;;;;5081102;28;1894;-77
2022/01/20 11:09:32;;;;;;;;;;;;;;;;;;5083268;28;1213;-77
2022/01/20 11:12:02;;;;;;;;;;;;;;;;;;5088133;28;1286;-79
2022/01/20 11:14:31;;;;;;;;;;;;;;;;;;5102349;28;1126;-77
2022/01/20 11:16:57;;;;;;;;;;;;;;;;;;5104986;28;1159;-77
2022/01/20 11:19:35;;;;;;;;;;;;;;;;;;5103343;28;1322;-76
2022/01/20 11:22:08;;;;;;;;;;;;;;;;;;5101087;28;1206;-77
2022/01/20 11:24:33;;;;;;;;;;;;;;;;;;5108079;28;1171;-77
2022/01/20 11:27:00;;;;;;;;;;;;;;;;;;5103894;28;1886;-77
2022/01/20 11:29:40;;;;;;;;;;;;;;;;;;5103899;28;1383;-77
2022/01/20 11:32:18;;;;;;;;;;;;;;;;;;5103340;28;1334;-76
2022/01/20 11:34:58;;;;;;;;;;;;;;;;;;5100644;28;1433;-76
2022/01/20 11:37:32;;;;;;;;;;;;;;;;;;5098041;28;1325;-76
2022/01/20 11:40:07;;;;;;;;;;;;;;;;;;5104308;28;1234;-76
2022/01/20 11:42:33;;;;;;;;;;;;;;;;;;5101886;28;1152;-76
2022/01/20 11:44:58;;;;;;;;;;;;;;;;;;5085916;28;1373;-77
2022/01/20 11:47:31;;;;;;;;;;;;;;;;;;5102728;28;1926;-76
2022/01/20 11:49:56;;;;;;;;;;;;;;;;;;5105003;28;1352;-76
2022/01/20 11:52:31;;;;;;;;;;;;;;;;;;5082904;28;1310;-77
2022/01/20 11:54:56;;;;;;;;;;;;;;;;;;5103982;28;1179;-76
2022/01/20 11:57:21;;;;;;;;;;;;;;;;;;5104323;28;1167;-77
2022/01/20 11:59:48;;;;;;;;;;;;;;;;;;5102061;28;1225;-77
2022/01/20 12:02:32;;;;;;;;;;;;;;;;;;5103862;28;1356;-78
2022/01/20 12:04:58;;;;;;;;;;;;;;;;;;5104250;28;1322;-78
2022/01/20 12:07:35;;;;;;;;;;;;;;;;;;5099936;28;1977;-78
2022/01/20 12:10:14;;;;;;;;;;;;;;;;;;5104098;28;1233;-78
2022/01/20 12:12:40;;;;;;;;;;;;;;;;;;5099542;28;1214;-77
2022/01/20 12:15:10;;;;;;;;;;;;;;;;;;5095977;28;1222;-79
2022/01/20 12:17:37;;;;;;;;;;;;;;;;;;5080516;28;1370;-77
2022/01/20 12:20:03;;;;;;;;;;;;;;;;;;5099343;28;1257;-77
2022/01/20 12:22:38;;;;;;;;;;;;;;;;;;5101178;28;1203;-76
2022/01/20 12:25:03;;;;;;;;;;;;;;;;;;5102999;28;1280;-75
2022/01/20 12:27:36;;;;;;;;;;;;;;;;;;5102955;28;1971;-74
2022/01/20 12:30:02;;;;;;;;;;;;;;;;;;5105274;28;1147;-74
2022/01/20 12:32:35;;;;;;;;;;;;;;;;;;5102810;28;1311;-75
2022/01/20 12:35:03;;;;;;;;;;;;;;;;;;5103495;28;1113;-75
2022/01/20 12:37:40;;;;;;;;;;;;;;;;;;5085179;28;1244;-75
2022/01/20 12:40:07;;;;;;;;;;;;;;;;;;5087282;28;1172;-74
2022/01/20 12:42:35;;;;;;;;;;;;;;;;;;5084878;28;1132;-73
2022/01/20 12:45:05;;;;;;;;;;;;;;;;;;5086844;28;1365;-76
2022/01/20 12:47:33;;;;;;;;;;;;;;;;;;5086672;28;1918;-75
2022/01/20 12:50:00;;;;;;;;;;;;;;;;;;5101096;28;1397;-76
2022/01/20 12:52:26;;;;;;;;;;;;;;;;;;5099493;28;1167;-76
2022/01/20 12:54:51;;;;;;;;;;;;;;;;;;5107211;28;1147;-77
2022/01/20 12:57:17;;;;;;;;;;;;;;;;;;5107358;28;1315;-77
2022/01/20 12:59:44;;;;;;;;;;;;;;;;;;5106940;28;1071;-77
2022/01/20 13:02:12;;;;;;;;;;;;;;;;;;5106172;28;1297;-75
2022/01/20 13:04:38;;;;;;;;;;;;;;;;;;5108376;28;1207;-75
2022/01/20 13:07:05;;;;;;;;;;;;;;;;;;5093013;28;1897;-75
2022/01/20 13:09:42;;;;;;;;;;;;;;;;;;5109108;28;1099;-76
2022/01/20 13:12:07;;;;;;;;;;;;;;;;;;5106595;28;1213;-76
2022/01/20 13:14:40;;;;;;;;;;;;;;;;;;5107609;28;1313;-76
2022/01/20 13:17:10;;;;;;;;;;;;;;;;;;5107146;28;1237;-76
2022/01/20 13:19:40;;;;;;;;;;;;;;;;;;5097536;28;1198;-76
2022/01/20 13:22:18;;;;;;;;;;;;;;;;;;5082424;28;1461;-77
2022/01/20 13:24:43;;;;;;;;;;;;;;;;;;5088164;28;1176;-76
2022/01/20 13:27:11;;;;;;;;;;;;;;;;;;5105533;28;1952;-77
2022/01/20 13:29:55;;;;;;;;;;;;;;;;;;5105718;28;1207;-76
2022/01/20 13:32:23;;;;;;;;;;;;;;;;;;5106387;28;1206;-76
2022/01/20 13:34:52;;;;;;;;;;;;;;;;;;5088380;28;1262;-76
2022/01/20 13:37:17;;;;;;;;;;;;;;;;;;5090670;28;1411;-76
2022/01/20 13:39:44;;;;;;;;;;;;;;;;;;5084345;28;1190;-75
2022/01/20 13:45:44;;;;;;;;;;;;;;;;;;5086634;28;995;-76
2022/01/20 13:47:52;;;;;;;;;;;;;;;;;;5075110;28;1921;-77
2022/01/20 13:50:38;;;;;;;;;;;;;;;;;;5083309;28;1246;-77
2022/01/20 13:53:17;;;;;;;;;;;;;;;;;;5081717;28;1322;-76
2022/01/20 13:55:47;;;;;;;;;;;;;;;;;;5083426;28;1321;-75
2022/01/20 13:58:30;;;;;;;;;;;;;;;;;;5105753;28;1315;-76
2022/01/20 14:00:56;;;;;;;;;;;;;;;;;;5100049;28;1198;-76
2022/01/20 14:03:22;;;;;;;;;;;;;;;;;;5086538;28;1148;-76
2022/01/20 14:08:55;;;;;;;;;;;;;;;;;;5085567;28;1330;-76
2022/01/20 14:11:22;;;;;;;;;;;;;;;;;;5084823;28;1285;-75
2022/01/20 14:13:48;;;;;;;;;;;;;;;;;;5084303;28;1159;-74
2022/01/20 14:16:14;;;;;;;;;;;;;;;;;;5083185;28;1249;-75
2022/01/20 14:18:45;;;;;;;;;;;;;;;;;;5100518;28;1357;-75
2022/01/20 14:21:14;;;;;;;;;;;;;;;;;;5100046;28;1413;-76
2022/01/20 14:23:43;;;;;;;;;;;;;;;;;;5105520;28;1198;-76
2022/01/20 14:26:11;;;;;;;;;;;;;;;;;;5115333;27;1310;-78
2022/01/20 14:28:46;;;;;;;;;;;;;;;;;;5068472;28;1886;-77
2022/01/20 14:31:11;;;;;;;;;;;;;;;;;;5066529;28;1187;-77
2022/01/20 14:33:46;;;;;;;;;;;;;;;;;;5073727;28;1343;-77
2022/01/20 14:36:13;;;;;;;;;;;;;;;;;;5101466;28;1528;-77
2022/01/20 14:38:44;;;;;;;;;;;;;;;;;;5103894;28;1537;-77
2022/01/20 14:41:09;;;;;;;;;;;;;;;;;;5087274;28;1227;-77
2022/01/20 14:43:35;;;;;;;;;;;;;;;;;;5105829;28;1420;-78
2022/01/20 14:46:00;;;;;;;;;;;;;;;;;;5087509;28;1292;-77
2022/01/20 14:48:27;;;;;;;;;;;;;;;;;;5099663;28;1956;-77
2022/01/20 14:50:56;;;;;;;;;;;;;;;;;;5081778;28;1416;-76
2022/01/20 14:53:21;;;;;;;;;;;;;;;;;;5083241;28;1227;-77
2022/01/20 14:55:47;;;;;;;;;;;;;;;;;;5083163;28;1208;-77
2022/01/20 14:58:12;;;;;;;;;;;;;;;;;;5104935;28;1388;-76
2022/01/20 15:00:37;;;;;;;;;;;;;;;;;;5105066;28;1116;-76
2022/01/20 15:03:03;;;;;;;;;;;;;;;;;;5101421;28;1387;-76
2022/01/20 15:05:29;;;;;;;;;;;;;;;;;;5104470;28;1168;-76
2022/01/20 15:07:54;;;;;;;;;;;;;;;;;;5084961;28;1890;-75
2022/01/20 15:10:20;;;;;;;;;;;;;;;;;;5096659;28;1195;-75
2022/01/20 15:12:46;;;;;;;;;;;;;;;;;;5081841;28;1317;-75
2022/01/20 15:15:11;;;;;;;;;;;;;;;;;;5087933;28;1139;-76
2022/01/20 15:17:37;;;;;;;;;;;;;;;;;;5095068;28;1171;-76
2022/01/20 15:20:03;;;;;;;;;;;;;;;;;;5083296;28;1121;-78
2022/01/20 15:22:28;;;;;;;;;;;;;;;;;;5080221;28;1253;-76
2022/01/20 15:24:53;;;;;;;;;;;;;;;;;;5083987;28;1222;-76
2022/01/20 15:27:18;;;;;;;;;;;;;;;;;;5084420;28;1898;-75
2022/01/20 15:29:47;;;;;;;;;;;;;;;;;;5066876;28;1274;-75
2022/01/20 15:32:12;;;;;;;;;;;;;;;;;;5082178;28;1152;-76
2022/01/20 15:34:37;;;;;;;;;;;;;;;;;;5084390;28;1395;-78
2022/01/20 15:37:03;;;;;;;;;;;;;;;;;;5078725;28;1207;-76
2022/01/20 15:39:28;;;;;;;;;;;;;;;;;;5083899;28;1215;-77
2022/01/20 15:41:53;;;;;;;;;;;;;;;;;;5083402;28;1039;-77
2022/01/20 15:44:19;;;;;;;;;;;;;;;;;;5084351;28;1176;-77
2022/01/20 15:46:53;;;;;;;;;;;;;;;;;;5066896;28;1980;-76
2022/01/20 15:49:18;;;;;;;;;;;;;;;;;;5086157;28;1091;-77
2022/01/20 15:51:52;;;;;;;;;;;;;;;;;;5063162;28;1273;-77
2022/01/20 15:54:17;;;;;;;;;;;;;;;;;;5068611;28;1228;-77
2022/01/20 15:56:51;;;;;;;;;;;;;;;;;;5083417;28;1245;-76
2022/01/20 15:59:17;;;;;;;;;;;;;;;;;;5084338;28;1381;-76
2022/01/20 16:01:42;;;;;;;;;;;;;;;;;;5082749;28;1131;-77
2022/01/20 16:04:09;;;;;;;;;;;;;;;;;;5082982;28;1099;-76
2022/01/20 16:06:35;;;;;;;;;;;;;;;;;;5081227;28;1947;-76
2022/01/20 16:09:00;;;;;;;;;;;;;;;;;;5080469;28;1127;-76
2022/01/20 16:11:28;;;;;;;;;;;;;;;;;;5065841;28;1262;-77
2022/01/20 16:13:54;;;;;;;;;;;;;;;;;;5084125;28;1333;-77
2022/01/20 16:16:19;;;;;;;;;;;;;;;;;;5107856;28;1250;-76
2022/01/20 16:18:44;;;;;;;;;;;;;;;;;;5106873;28;1148;-76
2022/01/20 16:21:16;;;;;;;;;;;;;;;;;;5102582;28;1188;-77
2022/01/20 16:23:43;;;;;;;;;;;;;;;;;;5107284;28;1344;-76
2022/01/20 16:26:08;;;;;;;;;;;;;;;;;;5105405;28;1344;-76
2022/01/20 16:28:34;;;;;;;;;;;;;;;;;;5107241;28;1921;-76
2022/01/20 16:30:59;;;;;;;;;;;;;;;;;;5078059;28;1348;-77
2022/01/20 16:33:25;;;;;;;;;;;;;;;;;;5069487;28;1365;-77
2022/01/20 16:36:22;;;;;;;;;;;;;;;;;;5084323;28;1292;-77
2022/01/20 16:38:54;;;;;;;;;;;;;;;;;;5071896;28;1460;-77
2022/01/20 16:41:19;;;;;;;;;;;;;;;;;;5107475;28;1107;-76
2022/01/20 16:43:44;;;;;;;;;;;;;;;;;;5107277;28;1342;-77
2022/01/20 16:46:10;;;;;;;;;;;;;;;;;;5068162;28;1333;-77
2022/01/20 16:48:36;;;;;;;;;;;;;;;;;;5070745;28;1905;-76
2022/01/20 16:51:13;;;;;;;;;;;;;;;;;;5083643;28;1249;-77
2022/01/20 16:53:39;;;;;;;;;;;;;;;;;;5069199;28;1211;-76
2022/01/20 16:56:07;;;;;;;;;;;;;;;;;;5084182;28;1067;-77
2022/01/20 16:58:33;;;;;;;;;;;;;;;;;;5071109;28;1363;-76
2022/01/20 17:00:58;;;;;;;;;;;;;;;;;;5085551;28;1259;-77
2022/01/20 17:03:24;;;;;;;;;;;;;;;;;;5099642;28;1243;-77
2022/01/20 17:05:59;;;;;;;;;;;;;;;;;;5106781;28;1555;-77
2022/01/20 17:08:24;;;;;;;;;;;;;;;;;;5085451;28;1906;-77
2022/01/20 17:11:06;;;;;;;;;;;;;;;;;;5068234;28;1243;-78
2022/01/20 17:13:31;;;;;;;;;;;;;;;;;;5088047;28;1322;-76
2022/01/20 17:15:57;;;;;;;;;;;;;;;;;;5070694;28;1316;-77
2022/01/20 17:18:24;;;;;;;;;;;;;;;;;;5087366;28;1132;-76
2022/01/20 17:20:59;;;;;;;;;;;;;;;;;;5069561;28;1184;-77
2022/01/20 17:23:26;;;;;;;;;;;;;;;;;;5084349;28;1420;-77
2022/01/20 17:25:58;;;;;;;;;;;;;;;;;;5085461;28;1305;-77
2022/01/20 17:28:24;;;;;;;;;;;;;;;;;;5087156;28;1894;-76
2022/01/20 17:30:51;;;;;;;;;;;;;;;;;;5087503;28;1171;-76
2022/01/20 17:33:17;;;;;;;;;;;;;;;;;;5079312;28;1294;-77
2022/01/20 17:35:42;;;;;;;;;;;;;;;;;;5104568;28;1433;-77
2022/01/20 17:38:08;;;;;;;;;;;;;;;;;;5092496;28;1223;-76
2022/01/20 17:40:35;;;;;;;;;;;;;;;;;;5088451;28;1230;-76
2022/01/20 17:43:01;;;;;;;;;;;;;;;;;;5082694;28;1127;-76
2022/01/20 17:45:26;;;;;;;;;;;;;;;;;;5086269;28;1258;-76
2022/01/20 17:47:58;;;;;;;;;;;;;;;;;;5086081;28;1981;-78
2022/01/20 17:50:23;;;;;;;;;;;;;;;;;;5087183;28;1155;-77
2022/01/20 17:52:49;;;;;;;;;;;;;;;;;;5084097;28;1155;-77
2022/01/20 17:55:14;;;;;;;;;;;;;;;;;;5097541;28;1471;-76
2022/01/20 17:57:42;;;;;;;;;;;;;;;;;;5104748;28;1363;-76
2022/01/20 18:00:09;;;;;;;;;;;;;;;;;;5104510;28;1119;-77
2022/01/20 18:02:36;;;;;;;;;;;;;;;;;;5093399;28;1171;-77
2022/01/20 18:05:01;;;;;;;;;;;;;;;;;;5084373;28;1211;-77
2022/01/20 18:07:27;;;;;;;;;;;;;;;;;;5082918;28;1893;-79
2022/01/20 18:09:52;;;;;;;;;;;;;;;;;;5067658;28;1191;-77
2022/01/20 18:12:17;;;;;;;;;;;;;;;;;;5083243;28;1226;-78
2022/01/20 18:14:44;;;;;;;;;;;;;;;;;;5073824;28;1543;-77
2022/01/20 18:17:09;;;;;;;;;;;;;;;;;;5102888;28;1160;-77